Time;durP1;ratioP1;P1;durP2;ratioP2;P2;SDS_P1;SDS_P2;PMS_P1;PMS_P2;Temp;Humidity;BMP_temperature;BMP_pressure;BME280_temperature;BME280_humidity;BME280_pressure;Samples;Min_cycle;Max_cycle;Signal;HPM_P1;HPM_P2
2022/04/05 00:00:18;;;;;;;;;;;4.60;89.20;;;;;;5072821;28;19939;-89
2022/04/05 00:02:43;;;;;;;;;;;4.50;89.90;;;;;;5072740;28;20334;-88
2022/04/05 00:05:09;;;;;;;;;;;4.50;90.10;;;;;;5072600;28;19912;-89
2022/04/05 00:07:34;;;;;;;;;;;4.60;91.40;;;;;;5072405;28;19948;-89
2022/04/05 00:10:00;;;;;;;;;;;4.70;90.70;;;;;;5072572;28;20290;-89
2022/04/05 00:12:26;;;;;;;;;;;4.40;90.00;;;;;;5075971;28;19912;-90
2022/04/05 00:14:52;;;;;;;;;;;4.40;90.70;;;;;;5074823;28;19916;-90
2022/04/05 00:17:18;;;;;;;;;;;4.40;91.30;;;;;;5076174;28;19916;-89
2022/04/05 00:19:43;;;;;;;;;;;4.40;91.00;;;;;;5076389;28;19935;-89
2022/04/05 00:22:09;;;;;;;;;;;4.40;91.10;;;;;;5076187;28;20285;-90
2022/04/05 00:24:34;;;;;;;;;;;4.50;91.40;;;;;;5075999;28;20298;-89
2022/04/05 00:27:00;;;;;;;;;;;4.60;90.90;;;;;;5075935;28;20298;-89
2022/04/05 00:29:26;;;;;;;;;;;4.60;90.50;;;;;;5076055;28;19958;-89
2022/04/05 00:31:52;;;;;;;;;;;4.70;90.10;;;;;;5075752;28;19913;-89
2022/04/05 00:34:18;;;;;;;;;;;4.80;89.50;;;;;;5075644;28;19916;-90
2022/04/05 00:36:44;;;;;;;;;;;4.70;88.50;;;;;;5075764;28;19928;-89
2022/04/05 00:39:09;;;;;;;;;;;4.70;88.80;;;;;;5075882;28;20016;-89
2022/04/05 00:41:35;;;;;;;;;;;4.70;88.50;;;;;;5074398;28;19913;-89
2022/04/05 00:44:01;;;;;;;;;;;4.60;88.50;;;;;;5075495;28;19916;-89
2022/04/05 00:46:26;;;;;;;;;;;4.60;88.50;;;;;;5075530;28;19913;-89
2022/04/05 00:48:53;;;;;;;;;;;4.70;88.20;;;;;;5074475;28;19909;-90
2022/04/05 00:51:19;;;;;;;;;;;4.80;87.80;;;;;;5075682;28;19916;-89
2022/04/05 00:53:46;;;;;;;;;;;4.90;86.70;;;;;;5075360;28;19995;-89
2022/04/05 00:56:14;;;;;;;;;;;4.90;86.10;;;;;;5075572;28;19908;-88
2022/04/05 00:58:40;;;;;;;;;;;4.80;87.30;;;;;;5075601;28;19944;-89
2022/04/05 01:01:07;;;;;;;;;;;4.60;87.60;;;;;;5075505;28;19919;-89
2022/04/05 01:03:33;;;;;;;;;;;4.40;87.80;;;;;;5073895;28;19912;-89
2022/04/05 01:06:01;;;;;;;;;;;4.20;88.00;;;;;;5075405;28;19974;-89
2022/04/05 01:08:27;;;;;;;;;;;4.00;88.70;;;;;;5075081;28;19912;-89
2022/04/05 01:10:53;;;;;;;;;;;3.90;89.10;;;;;;5074973;28;19958;-89
2022/04/05 01:13:19;;;;;;;;;;;3.90;89.20;;;;;;5075040;28;19908;-89
2022/04/05 01:15:45;;;;;;;;;;;3.80;89.20;;;;;;5075205;28;19959;-89
2022/04/05 01:18:12;;;;;;;;;;;3.80;89.20;;;;;;5074973;28;19960;-89
2022/04/05 01:20:37;;;;;;;;;;;3.70;89.30;;;;;;5075111;28;19958;-89
2022/04/05 01:23:03;;;;;;;;;;;3.50;88.90;;;;;;5075008;28;19912;-89
2022/04/05 01:27:06;;;;;;;;;;;3.50;89.10;;;;;;5110788;27;19922;-89
2022/04/05 01:29:32;;;;;;;;;;;3.40;89.50;;;;;;5111021;28;20006;-88
2022/04/05 01:32:03;;;;;;;;;;;3.40;90.10;;;;;;5110583;28;19907;-89
2022/04/05 01:34:29;;;;;;;;;;;3.30;89.70;;;;;;5110867;28;20365;-89
2022/04/05 01:36:56;;;;;;;;;;;3.30;90.40;;;;;;5102582;28;20448;-89
2022/04/05 01:39:23;;;;;;;;;;;3.40;90.80;;;;;;5090447;28;19912;-89
2022/04/05 01:41:59;;;;;;;;;;;3.40;90.80;;;;;;5090405;28;19908;-89
2022/04/05 01:44:25;;;;;;;;;;;3.40;90.70;;;;;;5090544;28;19912;-89
2022/04/05 01:46:51;;;;;;;;;;;3.40;90.80;;;;;;5090243;28;19913;-88
2022/04/05 01:49:17;;;;;;;;;;;3.40;90.70;;;;;;5090261;28;20377;-89
2022/04/05 01:51:43;;;;;;;;;;;3.50;91.00;;;;;;5092690;28;20004;-88
2022/04/05 01:54:10;;;;;;;;;;;3.50;91.20;;;;;;5109227;28;20281;-88
2022/04/05 01:56:41;;;;;;;;;;;3.50;91.00;;;;;;5108582;28;19908;-88
2022/04/05 01:59:07;;;;;;;;;;;3.30;89.90;;;;;;5090112;28;19923;-88
2022/04/05 02:01:33;;;;;;;;;;;3.20;90.10;;;;;;5089952;28;20294;-88
2022/04/05 02:03:58;;;;;;;;;;;3.10;89.90;;;;;;5090041;28;19924;-88
2022/04/05 02:06:24;;;;;;;;;;;3.00;90.50;;;;;;5090195;28;19916;-89
2022/04/05 02:08:50;;;;;;;;;;;3.00;91.40;;;;;;5069589;28;19912;-88
2022/04/05 02:11:16;;;;;;;;;;;3.00;91.30;;;;;;5079669;28;19916;-88
2022/04/05 02:13:41;;;;;;;;;;;3.10;91.60;;;;;;5089309;28;19967;-88
2022/04/05 02:16:07;;;;;;;;;;;3.10;91.80;;;;;;5089785;28;20397;-88
2022/04/05 02:18:34;;;;;;;;;;;3.20;91.80;;;;;;5089635;28;20286;-89
2022/04/05 02:21:00;;;;;;;;;;;3.20;91.80;;;;;;5089675;28;19913;-88
2022/04/05 02:23:25;;;;;;;;;;;3.20;91.90;;;;;;5089467;28;19916;-88
2022/04/05 02:25:51;;;;;;;;;;;3.00;91.70;;;;;;5089185;28;19920;-88
2022/04/05 02:28:16;;;;;;;;;;;2.90;91.30;;;;;;5089361;28;19916;-88
2022/04/05 02:30:42;;;;;;;;;;;2.80;91.80;;;;;;5089419;28;20096;-89
2022/04/05 02:33:08;;;;;;;;;;;2.70;91.40;;;;;;5089383;28;19954;-88
2022/04/05 02:35:33;;;;;;;;;;;2.60;91.50;;;;;;5089421;28;19943;-88
2022/04/05 02:37:59;;;;;;;;;;;2.60;91.60;;;;;;5078371;28;20331;-88
2022/04/05 02:40:25;;;;;;;;;;;2.70;91.80;;;;;;5075717;28;19920;-88
2022/04/05 02:42:51;;;;;;;;;;;2.60;91.50;;;;;;5075483;28;19912;-88
2022/04/05 02:45:17;;;;;;;;;;;2.70;91.80;;;;;;5075427;28;20381;-89
2022/04/05 02:47:43;;;;;;;;;;;2.60;91.80;;;;;;5075474;28;19909;-88
2022/04/05 02:50:09;;;;;;;;;;;2.70;91.90;;;;;;5075674;28;19995;-88
2022/04/05 02:54:43;;;;;;;;;;;2.60;91.60;;;;;;5152263;27;19911;-89
2022/04/05 02:57:09;;;;;;;;;;;2.60;91.60;;;;;;5152208;27;19912;-89
2022/04/05 02:59:34;;;;;;;;;;;2.50;91.70;;;;;;5151785;27;19938;-89
2022/04/05 03:02:00;;;;;;;;;;;2.40;91.60;;;;;;5152730;27;20319;-89
2022/04/05 03:04:25;;;;;;;;;;;2.40;91.70;;;;;;5151698;27;19907;-89
2022/04/05 03:06:51;;;;;;;;;;;2.50;91.80;;;;;;5151759;27;19911;-88
2022/04/05 03:09:17;;;;;;;;;;;2.50;91.90;;;;;;5143317;27;19907;-89
2022/04/05 03:11:43;;;;;;;;;;;2.40;92.20;;;;;;5131306;28;19954;-88
2022/04/05 03:14:10;;;;;;;;;;;2.50;92.50;;;;;;5126387;28;19911;-88
2022/04/05 03:16:37;;;;;;;;;;;2.50;92.60;;;;;;5131148;28;19911;-88
2022/04/05 03:19:07;;;;;;;;;;;2.50;92.80;;;;;;5119065;28;19974;-88
2022/04/05 03:21:33;;;;;;;;;;;2.60;93.20;;;;;;5110830;28;19998;-89
2022/04/05 03:24:38;;;;;;;;;;;2.70;93.30;;;;;;5110849;27;19922;-89
2022/04/05 03:27:03;;;;;;;;;;;2.70;93.00;;;;;;5104703;28;20351;-89
2022/04/05 03:29:29;;;;;;;;;;;2.70;93.00;;;;;;5111143;28;19908;-88
2022/04/05 03:33:20;;;;;;;;;;;2.60;92.60;;;;;;5130520;27;20389;-89
2022/04/05 03:38:11;;;;;;;;;;;2.50;92.10;;;;;;5100928;27;20340;-88
2022/04/05 03:40:37;;;;;;;;;;;2.30;91.90;;;;;;5092782;28;19999;-88
2022/04/05 03:43:02;;;;;;;;;;;2.10;91.80;;;;;;5092514;28;20337;-89
2022/04/05 03:45:28;;;;;;;;;;;2.10;91.90;;;;;;5109526;28;20281;-88
2022/04/05 03:47:53;;;;;;;;;;;2.00;92.00;;;;;;5110843;28;20311;-88
2022/04/05 03:50:19;;;;;;;;;;;2.00;92.60;;;;;;5110229;28;20328;-88
2022/04/05 03:52:44;;;;;;;;;;;2.10;93.20;;;;;;5110458;28;20369;-88
2022/04/05 03:55:11;;;;;;;;;;;2.20;93.30;;;;;;5110731;28;20000;-88
2022/04/05 03:57:37;;;;;;;;;;;2.40;93.50;;;;;;5110634;28;19961;-88
2022/04/05 04:00:03;;;;;;;;;;;2.30;93.60;;;;;;5110642;28;19908;-88
2022/04/05 04:02:34;;;;;;;;;;;2.40;93.60;;;;;;5109312;28;19915;-88
2022/04/05 04:04:59;;;;;;;;;;;2.50;93.40;;;;;;5110151;28;19916;-88
2022/04/05 04:07:25;;;;;;;;;;;2.40;93.20;;;;;;5110513;28;19908;-88
2022/04/05 04:09:51;;;;;;;;;;;2.20;93.30;;;;;;5091560;28;20518;-88
2022/04/05 04:12:17;;;;;;;;;;;2.30;93.40;;;;;;5090075;28;19916;-88
2022/04/05 04:14:42;;;;;;;;;;;2.40;93.40;;;;;;5089503;28;19912;-87
2022/04/05 04:17:08;;;;;;;;;;;2.50;93.50;;;;;;5089909;28;19920;-88
2022/04/05 04:19:34;;;;;;;;;;;2.50;93.10;;;;;;5089780;28;19982;-88
2022/04/05 04:22:00;;;;;;;;;;;2.30;92.40;;;;;;5090136;28;20018;-88
2022/04/05 04:24:25;;;;;;;;;;;2.00;91.90;;;;;;5089553;28;19913;-88
2022/04/05 04:28:48;;;;;;;;;;;1.80;92.00;;;;;;5111093;27;19912;-88
2022/04/05 04:31:13;;;;;;;;;;;1.80;92.00;;;;;;5110919;28;19920;-88
2022/04/05 04:33:39;;;;;;;;;;;1.90;92.10;;;;;;5110676;28;19957;-88
2022/04/05 04:36:05;;;;;;;;;;;1.80;92.30;;;;;;5111063;28;20343;-88
2022/04/05 04:38:30;;;;;;;;;;;1.70;92.00;;;;;;5110663;28;20324;-88
2022/04/05 04:40:56;;;;;;;;;;;1.60;92.10;;;;;;5110835;28;19951;-88
2022/04/05 04:43:23;;;;;;;;;;;1.60;92.10;;;;;;5110281;28;19913;-88
2022/04/05 04:45:48;;;;;;;;;;;1.60;92.20;;;;;;5110634;28;19991;-88
2022/04/05 04:48:14;;;;;;;;;;;1.80;92.60;;;;;;5110214;28;20006;-88
2022/04/05 04:50:39;;;;;;;;;;;1.80;92.30;;;;;;5110837;28;20250;-88
2022/04/05 04:53:05;;;;;;;;;;;1.90;93.00;;;;;;5110366;28;19994;-88
2022/04/05 04:55:32;;;;;;;;;;;2.00;93.00;;;;;;5110358;28;19908;-88
2022/04/05 04:57:58;;;;;;;;;;;1.90;93.00;;;;;;5102583;28;19912;-88
2022/04/05 05:00:23;;;;;;;;;;;2.20;93.70;;;;;;5096513;28;19958;-88
2022/04/05 05:02:50;;;;;;;;;;;1.70;92.40;;;;;;5091541;28;19908;-88
2022/04/05 05:05:16;;;;;;;;;;;1.80;93.60;;;;;;5110372;28;19969;-88
2022/04/05 05:07:44;;;;;;;;;;;2.20;94.00;;;;;;5101210;28;19916;-88
2022/04/05 05:10:11;;;;;;;;;;;1.70;92.80;;;;;;5105986;28;19999;-88
2022/04/05 05:12:43;;;;;;;;;;;1.70;93.30;;;;;;5096926;28;20393;-88
2022/04/05 05:15:10;;;;;;;;;;;2.00;93.90;;;;;;5104997;28;19912;-88
2022/04/05 05:17:36;;;;;;;;;;;2.10;93.80;;;;;;5095556;28;20449;-88
2022/04/05 05:20:02;;;;;;;;;;;2.30;93.90;;;;;;5098683;28;19912;-88
2022/04/05 05:22:28;;;;;;;;;;;2.20;93.40;;;;;;5107839;28;20300;-88
2022/04/05 05:24:53;;;;;;;;;;;2.30;93.30;;;;;;5100231;28;20010;-88
2022/04/05 05:27:19;;;;;;;;;;;2.40;93.50;;;;;;5097361;28;20263;-88
2022/04/05 05:29:44;;;;;;;;;;;2.50;93.10;;;;;;5099625;28;19920;-88
2022/04/05 05:32:10;;;;;;;;;;;2.60;93.00;;;;;;5096476;28;19917;-88
2022/04/05 05:34:35;;;;;;;;;;;2.70;93.10;;;;;;5091709;28;19920;-88
2022/04/05 05:37:02;;;;;;;;;;;2.80;92.70;;;;;;5103817;28;20007;-88
2022/04/05 05:39:28;;;;;;;;;;;2.70;92.00;;;;;;5088334;28;19955;-88
2022/04/05 05:41:54;;;;;;;;;;;2.60;92.00;;;;;;5092750;28;19963;-88
2022/04/05 05:44:20;;;;;;;;;;;2.80;92.30;;;;;;5086893;28;19908;-88
2022/04/05 05:46:46;;;;;;;;;;;2.90;92.10;;;;;;5086472;28;20292;-87
2022/04/05 05:49:11;;;;;;;;;;;2.70;91.70;;;;;;5082523;28;19959;-88
2022/04/05 05:51:37;;;;;;;;;;;2.60;91.50;;;;;;5086000;28;19955;-87
2022/04/05 05:54:02;;;;;;;;;;;2.50;91.40;;;;;;5092392;28;19912;-88
2022/04/05 05:56:28;;;;;;;;;;;2.60;91.80;;;;;;5087783;28;19923;-88
2022/04/05 05:58:53;;;;;;;;;;;2.60;91.90;;;;;;5088146;28;20437;-88
2022/04/05 06:01:19;;;;;;;;;;;2.70;92.10;;;;;;5082084;28;19919;-88
2022/04/05 06:03:46;;;;;;;;;;;2.90;92.40;;;;;;5086044;28;20389;-87
2022/04/05 06:06:11;;;;;;;;;;;3.10;92.40;;;;;;5083673;28;20385;-87
2022/04/05 06:08:37;;;;;;;;;;;3.20;92.10;;;;;;5091632;28;19916;-88
2022/04/05 06:11:02;;;;;;;;;;;3.20;92.40;;;;;;5090702;28;20281;-87
2022/04/05 06:13:28;;;;;;;;;;;3.20;92.50;;;;;;5087071;28;19918;-87
2022/04/05 06:15:53;;;;;;;;;;;3.30;92.80;;;;;;5084036;28;19935;-88
2022/04/05 06:18:19;;;;;;;;;;;3.30;93.00;;;;;;5082759;28;19932;-88
2022/04/05 06:20:45;;;;;;;;;;;3.40;93.10;;;;;;5076691;28;19916;-88
2022/04/05 06:23:10;;;;;;;;;;;3.50;93.20;;;;;;5077997;28;19916;-87
2022/04/05 06:25:37;;;;;;;;;;;3.70;93.40;;;;;;5085985;28;19916;-87
2022/04/05 06:28:04;;;;;;;;;;;3.90;93.50;;;;;;5075874;28;19950;-87
2022/04/05 06:31:10;;;;;;;;;;;4.20;93.60;;;;;;5104021;27;20408;-87
2022/04/05 06:33:36;;;;;;;;;;;4.50;93.40;;;;;;5089637;28;19912;-87
2022/04/05 06:36:01;;;;;;;;;;;4.80;93.20;;;;;;5091014;28;20671;-87
2022/04/05 06:38:27;;;;;;;;;;;5.00;92.70;;;;;;5086874;28;19919;-87
2022/04/05 06:40:54;;;;;;;;;;;5.00;92.30;;;;;;5089558;28;19916;-88
2022/04/05 06:43:21;;;;;;;;;;;5.00;91.90;;;;;;5095132;28;19912;-88
2022/04/05 06:45:47;;;;;;;;;;;5.00;91.50;;;;;;5088868;28;19916;-88
2022/04/05 06:54:19;;;;;;;;;;;5.10;91.50;;;;;;5108520;27;19916;-88
2022/04/05 06:56:45;;;;;;;;;;;5.40;90.10;;;;;;5100168;28;19919;-88
2022/04/05 06:59:55;;;;;;;;;;;5.40;90.10;;;;;;5100901;27;19974;-88
2022/04/05 07:02:22;;;;;;;;;;;5.60;90.40;;;;;;5100830;28;20370;-87
2022/04/05 07:04:47;;;;;;;;;;;5.80;90.30;;;;;;5101645;28;19919;-88
2022/04/05 07:07:13;;;;;;;;;;;6.00;90.10;;;;;;5106768;28;20343;-88
2022/04/05 07:09:38;;;;;;;;;;;6.20;89.60;;;;;;5109824;28;19998;-87
2022/04/05 07:12:07;;;;;;;;;;;6.40;89.50;;;;;;5097140;28;20365;-88
2022/04/05 07:14:33;;;;;;;;;;;6.50;88.30;;;;;;5101350;28;20002;-88
2022/04/05 07:16:59;;;;;;;;;;;6.60;88.20;;;;;;5111714;28;20377;-88
2022/04/05 07:21:52;;;;;;;;;;;6.70;87.80;;;;;;5102389;27;19924;-88
2022/04/05 07:24:18;;;;;;;;;;;6.80;86.90;;;;;;5080579;28;19930;-88
2022/04/05 07:26:44;;;;;;;;;;;6.80;87.20;;;;;;5082349;28;20370;-88
2022/04/05 07:29:10;;;;;;;;;;;6.90;87.40;;;;;;5077449;28;19913;-88
2022/04/05 07:31:35;;;;;;;;;;;7.00;86.70;;;;;;5085141;28;19912;-88
2022/04/05 07:34:01;;;;;;;;;;;7.10;86.90;;;;;;5088444;28;19920;-88
2022/04/05 07:36:27;;;;;;;;;;;7.20;87.00;;;;;;5093453;28;20369;-88
2022/04/05 07:38:52;;;;;;;;;;;7.40;86.90;;;;;;5082796;28;19919;-88
2022/04/05 07:41:19;;;;;;;;;;;7.70;86.60;;;;;;5089096;28;19962;-88
2022/04/05 07:46:38;;;;;;;;;;;7.90;86.00;;;;;;5086400;27;19916;-88
2022/04/05 07:49:04;;;;;;;;;;;8.10;85.00;;;;;;5096447;28;19927;-88
2022/04/05 07:51:29;;;;;;;;;;;8.20;84.70;;;;;;5090553;28;20435;-89
2022/04/05 07:53:55;;;;;;;;;;;8.40;84.30;;;;;;5086362;28;20011;-88
2022/04/05 07:56:20;;;;;;;;;;;8.50;83.00;;;;;;5087366;28;19958;-89
2022/04/05 08:00:19;;;;;;;;;;;8.70;83.30;;;;;;5106676;27;19922;-88
2022/04/05 08:02:44;;;;;;;;;;;8.90;83.30;;;;;;5106079;28;19916;-88
2022/04/05 08:05:10;;;;;;;;;;;9.00;83.40;;;;;;5095061;28;19959;-88
2022/04/05 08:07:35;;;;;;;;;;;9.00;82.70;;;;;;5102531;28;20031;-89
2022/04/05 08:10:01;;;;;;;;;;;9.10;82.60;;;;;;5099879;28;19927;-89
2022/04/05 08:12:34;;;;;;;;;;;9.10;82.40;;;;;;5100612;28;19912;-88
2022/04/05 08:14:59;;;;;;;;;;;9.30;82.10;;;;;;5095317;28;19916;-89
2022/04/05 08:17:25;;;;;;;;;;;9.50;80.90;;;;;;5091675;28;20057;-88
2022/04/05 08:19:50;;;;;;;;;;;9.70;79.50;;;;;;5091255;28;19939;-88
2022/04/05 08:22:16;;;;;;;;;;;9.90;78.70;;;;;;5103125;28;20412;-88
2022/04/05 08:24:42;;;;;;;;;;;10.00;78.90;;;;;;5107520;28;19935;-88
2022/04/05 08:27:07;;;;;;;;;;;10.20;77.40;;;;;;5112525;28;19963;-88
2022/04/05 08:29:39;;;;;;;;;;;10.10;77.00;;;;;;5102101;28;19913;-88
2022/04/05 08:32:05;;;;;;;;;;;10.00;78.60;;;;;;5093396;28;19916;-88
2022/04/05 08:34:31;;;;;;;;;;;10.00;77.70;;;;;;5104567;28;20365;-88
2022/04/05 08:36:57;;;;;;;;;;;10.00;78.00;;;;;;5104157;28;19920;-88
2022/04/05 08:39:23;;;;;;;;;;;10.00;77.90;;;;;;5102877;28;20014;-88
2022/04/05 08:41:49;;;;;;;;;;;10.10;77.60;;;;;;5095336;28;19992;-89
2022/04/05 08:44:18;;;;;;;;;;;10.30;77.00;;;;;;5100866;28;19916;-89
2022/04/05 08:46:44;;;;;;;;;;;10.40;76.80;;;;;;5107138;28;20262;-88
2022/04/05 08:49:11;;;;;;;;;;;10.60;76.40;;;;;;5109843;28;19965;-88
2022/04/05 08:51:36;;;;;;;;;;;10.70;76.50;;;;;;5106533;28;19948;-88
2022/04/05 08:54:02;;;;;;;;;;;10.80;75.50;;;;;;5099666;28;19951;-89
2022/04/05 08:57:38;;;;;;;;;;;10.90;75.80;;;;;;5088136;27;20377;-88
2022/04/05 09:00:05;;;;;;;;;;;11.00;75.40;;;;;;5068782;28;19919;-88
2022/04/05 09:02:30;;;;;;;;;;;11.00;74.00;;;;;;5068026;28;19919;-88
2022/04/05 09:04:56;;;;;;;;;;;10.90;73.00;;;;;;5068767;28;19913;-88
2022/04/05 09:07:23;;;;;;;;;;;10.90;72.80;;;;;;5067776;28;19971;-88
2022/04/05 09:10:09;;;;;;;;;;;11.00;73.60;;;;;;5065403;28;19920;-88
2022/04/05 09:12:38;;;;;;;;;;;10.90;73.70;;;;;;5069293;28;20322;-89
2022/04/05 09:15:21;;;;;;;;;;;11.10;73.90;;;;;;5065824;28;19913;-88
2022/04/05 09:17:48;;;;;;;;;;;11.40;73.50;;;;;;5066125;28;20011;-89
2022/04/05 09:20:15;;;;;;;;;;;11.50;72.60;;;;;;5064555;28;19913;-88
2022/04/05 09:22:40;;;;;;;;;;;12.00;71.80;;;;;;5064954;28;19912;-89
2022/04/05 09:25:07;;;;;;;;;;;11.90;69.50;;;;;;5068912;28;19935;-88
2022/04/05 09:27:42;;;;;;;;;;;12.10;70.80;;;;;;5060761;28;19913;-88
2022/04/05 09:30:10;;;;;;;;;;;12.40;69.30;;;;;;5066927;28;20320;-88
2022/04/05 09:32:40;;;;;;;;;;;12.10;67.30;;;;;;5073857;28;19942;-89
2022/04/05 09:35:06;;;;;;;;;;;12.20;68.50;;;;;;5066085;28;20015;-88
2022/04/05 09:37:36;;;;;;;;;;;12.40;67.20;;;;;;5064317;28;19920;-89
2022/04/05 09:40:21;;;;;;;;;;;12.50;66.00;;;;;;5064375;28;19920;-89
2022/04/05 09:43:07;;;;;;;;;;;12.70;64.70;;;;;;5066960;28;19913;-88
2022/04/05 09:45:45;;;;;;;;;;;12.60;63.90;;;;;;5066011;28;19913;-88
2022/04/05 09:48:11;;;;;;;;;;;12.70;66.30;;;;;;5064895;28;20481;-89
2022/04/05 09:50:55;;;;;;;;;;;12.70;64.40;;;;;;5067824;28;20011;-89
2022/04/05 09:53:20;;;;;;;;;;;12.90;64.70;;;;;;5062703;28;19936;-89
2022/04/05 09:55:46;;;;;;;;;;;13.00;63.30;;;;;;5066448;28;20562;-89
2022/04/05 09:58:12;;;;;;;;;;;13.20;63.20;;;;;;5067439;28;20282;-88
2022/04/05 10:00:37;;;;;;;;;;;13.40;60.90;;;;;;5065595;28;19927;-89
2022/04/05 10:03:09;;;;;;;;;;;13.40;60.50;;;;;;5066825;28;19917;-89
2022/04/05 10:05:35;;;;;;;;;;;13.30;64.10;;;;;;5063665;28;19960;-89
2022/04/05 10:08:02;;;;;;;;;;;13.40;63.80;;;;;;5055405;28;19913;-89
2022/04/05 10:10:28;;;;;;;;;;;13.40;63.20;;;;;;5055837;28;19970;-89
2022/04/05 10:12:54;;;;;;;;;;;13.30;61.20;;;;;;5055479;28;20371;-89
2022/04/05 10:15:21;;;;;;;;;;;13.10;63.40;;;;;;5055832;28;19956;-88
2022/04/05 10:17:48;;;;;;;;;;;13.10;61.80;;;;;;5055327;28;19963;-89
2022/04/05 10:20:16;;;;;;;;;;;13.30;61.60;;;;;;5055596;28;19932;-88
2022/04/05 10:22:42;;;;;;;;;;;13.40;62.20;;;;;;5055618;28;19912;-89
2022/04/05 10:25:08;;;;;;;;;;;13.60;59.80;;;;;;5055417;28;20450;-89
2022/04/05 10:27:34;;;;;;;;;;;13.70;58.60;;;;;;5055286;28;19936;-89
2022/04/05 10:30:03;;;;;;;;;;;13.70;58.60;;;;;;5055415;28;20371;-89
2022/04/05 10:32:29;;;;;;;;;;;13.70;57.20;;;;;;5055283;28;19920;-89
2022/04/05 10:34:56;;;;;;;;;;;13.60;58.30;;;;;;5055346;28;19909;-89
2022/04/05 10:37:35;;;;;;;;;;;13.40;59.60;;;;;;5054842;28;19920;-88
2022/04/05 10:40:00;;;;;;;;;;;13.40;59.70;;;;;;5055483;28;19909;-89
2022/04/05 10:42:46;;;;;;;;;;;13.60;56.60;;;;;;5055184;28;19957;-89
2022/04/05 10:45:16;;;;;;;;;;;13.90;57.80;;;;;;5054853;28;19959;-89
2022/04/05 10:48:01;;;;;;;;;;;14.20;55.60;;;;;;5055098;28;19959;-88
2022/04/05 10:50:27;;;;;;;;;;;14.10;55.30;;;;;;5055329;28;19909;-88
2022/04/05 10:53:13;;;;;;;;;;;14.10;55.30;;;;;;5055009;28;19909;-88
2022/04/05 10:56:02;;;;;;;;;;;14.10;55.40;;;;;;5054123;28;19921;-88
2022/04/05 10:58:27;;;;;;;;;;;14.20;55.50;;;;;;5054775;28;20279;-88
2022/04/05 11:01:11;;;;;;;;;;;14.20;54.90;;;;;;5054839;28;19909;-89
2022/04/05 11:03:36;;;;;;;;;;;14.40;54.70;;;;;;5054843;28;19908;-89
2022/04/05 11:06:03;;;;;;;;;;;14.80;54.00;;;;;;5054554;28;19947;-89
2022/04/05 11:08:29;;;;;;;;;;;15.10;53.50;;;;;;5054662;28;19908;-89
2022/04/05 11:10:58;;;;;;;;;;;15.40;53.50;;;;;;5054660;28;20278;-90
2022/04/05 11:13:33;;;;;;;;;;;15.70;53.10;;;;;;5054433;28;19935;-89
2022/04/05 11:15:59;;;;;;;;;;;15.90;53.10;;;;;;5053897;28;19994;-89
2022/04/05 11:18:33;;;;;;;;;;;15.90;52.50;;;;;;5054286;28;19909;-89
2022/04/05 11:20:59;;;;;;;;;;;16.30;49.40;;;;;;5053823;28;19970;-89
2022/04/05 11:23:41;;;;;;;;;;;16.50;48.30;;;;;;5044801;28;19913;-89
2022/04/05 11:26:22;;;;;;;;;;;16.60;48.00;;;;;;5040236;28;20383;-89
2022/04/05 11:28:47;;;;;;;;;;;16.70;49.60;;;;;;5034358;28;20375;-89
2022/04/05 11:31:25;;;;;;;;;;;16.20;47.50;;;;;;5063758;28;19920;-89
2022/04/05 11:33:51;;;;;;;;;;;16.20;49.40;;;;;;5067923;28;20278;-89
2022/04/05 11:36:21;;;;;;;;;;;15.70;49.50;;;;;;5051925;28;19917;-89
2022/04/05 11:38:49;;;;;;;;;;;15.50;50.00;;;;;;5051415;28;19919;-88
2022/04/05 11:41:19;;;;;;;;;;;15.20;50.90;;;;;;5049856;28;19919;-89
2022/04/05 11:43:46;;;;;;;;;;;15.30;52.70;;;;;;5042573;28;19928;-89
2022/04/05 11:46:16;;;;;;;;;;;15.50;51.60;;;;;;5059028;28;19913;-89
2022/04/05 11:48:42;;;;;;;;;;;15.80;51.30;;;;;;5046652;28;19920;-89
2022/04/05 11:51:09;;;;;;;;;;;16.10;51.10;;;;;;5044014;28;19949;-89
2022/04/05 11:53:35;;;;;;;;;;;16.40;50.00;;;;;;5049983;28;19924;-89
2022/04/05 11:56:05;;;;;;;;;;;16.20;47.50;;;;;;5047382;28;19924;-89
2022/04/05 11:58:34;;;;;;;;;;;16.10;48.00;;;;;;5047070;28;19920;-88
2022/04/05 12:01:00;;;;;;;;;;;15.50;49.40;;;;;;5050012;28;20345;-88
2022/04/05 12:03:26;;;;;;;;;;;15.70;52.30;;;;;;5049245;28;19917;-88
2022/04/05 12:05:52;;;;;;;;;;;15.80;48.50;;;;;;5051440;28;19970;-89
2022/04/05 12:08:17;;;;;;;;;;;16.00;50.00;;;;;;5051362;28;19913;-89
2022/04/05 12:10:44;;;;;;;;;;;16.30;50.20;;;;;;5050016;28;19927;-89
2022/04/05 12:13:10;;;;;;;;;;;16.20;47.60;;;;;;5050869;28;19959;-89
2022/04/05 12:15:37;;;;;;;;;;;16.10;48.30;;;;;;5052216;28;19975;-89
2022/04/05 12:18:16;;;;;;;;;;;16.20;48.60;;;;;;5050101;28;20275;-89
2022/04/05 12:20:54;;;;;;;;;;;16.30;47.20;;;;;;5052854;28;19982;-89
2022/04/05 12:23:20;;;;;;;;;;;17.10;46.90;;;;;;5057018;28;19975;-89
2022/04/05 12:26:06;;;;;;;;;;;17.70;44.70;;;;;;5051755;28;19989;-89
2022/04/05 12:28:33;;;;;;;;;;;18.00;44.80;;;;;;5048200;28;19948;-89
2022/04/05 12:31:04;;;;;;;;;;;18.70;43.30;;;;;;5049838;28;19913;-89
2022/04/05 12:35:35;;;;;;;;;;;18.90;43.80;;;;;;5111269;27;19924;-89
2022/04/05 12:38:01;;;;;;;;;;;19.60;43.60;;;;;;5104508;28;19918;-89
2022/04/05 12:40:27;;;;;;;;;;;20.00;39.10;;;;;;5089781;28;19934;-89
2022/04/05 12:42:53;;;;;;;;;;;20.10;39.00;;;;;;5093105;28;19913;-89
2022/04/05 12:45:25;;;;;;;;;;;20.70;39.20;;;;;;5085412;28;19919;-89
2022/04/05 12:47:50;;;;;;;;;;;21.40;38.80;;;;;;5085989;28;20026;-89
2022/04/05 12:50:17;;;;;;;;;;;22.30;35.40;;;;;;5078467;28;19974;-89
2022/04/05 12:52:44;;;;;;;;;;;22.60;35.10;;;;;;5092176;28;20485;-89
2022/04/05 12:55:18;;;;;;;;;;;21.40;35.60;;;;;;5085893;28;20003;-89
2022/04/05 12:57:51;;;;;;;;;;;21.30;35.40;;;;;;5089097;28;20015;-89
2022/04/05 13:00:18;;;;;;;;;;;21.10;36.90;;;;;;5090758;28;19913;-89
2022/04/05 13:02:44;;;;;;;;;;;20.30;38.10;;;;;;5091984;28;19913;-90
2022/04/05 13:07:59;;;;;;;;;;;19.70;39.80;;;;;;5094234;28;19951;-89
2022/04/05 13:10:35;;;;;;;;;;;18.90;40.80;;;;;;5099143;28;19947;-89
2022/04/05 13:13:17;;;;;;;;;;;18.60;41.90;;;;;;5095813;28;19919;-89
2022/04/05 13:15:43;;;;;;;;;;;18.60;43.00;;;;;;5098660;28;19962;-89
2022/04/05 13:18:08;;;;;;;;;;;19.50;42.50;;;;;;5083937;28;20215;-89
2022/04/05 13:20:34;;;;;;;;;;;20.40;40.00;;;;;;5083249;28;19920;-89
2022/04/05 13:23:04;;;;;;;;;;;21.10;38.20;;;;;;5084403;28;20432;-90
2022/04/05 13:25:33;;;;;;;;;;;21.60;36.90;;;;;;5085455;28;19920;-89
2022/04/05 13:28:02;;;;;;;;;;;22.00;35.50;;;;;;5096402;28;19923;-90
2022/04/05 13:30:28;;;;;;;;;;;22.50;35.20;;;;;;5083902;28;19913;-90
2022/04/05 13:33:07;;;;;;;;;;;23.50;34.20;;;;;;5085974;28;19913;-90
2022/04/05 13:35:33;;;;;;;;;;;24.10;32.60;;;;;;5087259;28;20427;-90
2022/04/05 13:37:59;;;;;;;;;;;25.10;30.90;;;;;;5091618;28;19961;-90
2022/04/05 13:40:26;;;;;;;;;;;25.50;30.30;;;;;;5090913;28;19944;-90
2022/04/05 13:42:53;;;;;;;;;;;26.10;29.70;;;;;;5090652;28;19916;-89
2022/04/05 13:45:19;;;;;;;;;;;25.40;30.40;;;;;;5090215;28;20288;-90
2022/04/05 13:47:45;;;;;;;;;;;25.80;30.20;;;;;;5080590;28;20191;-90
2022/04/05 13:50:11;;;;;;;;;;;26.50;29.00;;;;;;5076893;28;20211;-89
2022/04/05 13:52:37;;;;;;;;;;;25.10;29.60;;;;;;5076021;28;19920;-89
2022/04/05 13:55:04;;;;;;;;;;;24.20;30.90;;;;;;5068499;28;19916;-88
2022/04/05 13:57:29;;;;;;;;;;;22.80;34.10;;;;;;5083626;28;19935;-89
2022/04/05 13:59:55;;;;;;;;;;;22.30;34.70;;;;;;5073637;28;20390;-89
2022/04/05 14:02:21;;;;;;;;;;;21.60;35.70;;;;;;5072903;28;20277;-88
2022/04/05 14:04:46;;;;;;;;;;;20.90;38.80;;;;;;5076255;28;20444;-89
2022/04/05 14:07:14;;;;;;;;;;;20.20;38.10;;;;;;5075604;28;19912;-89
2022/04/05 14:09:40;;;;;;;;;;;19.70;40.20;;;;;;5078630;28;19912;-89
2022/04/05 14:12:09;;;;;;;;;;;20.10;38.10;;;;;;5078955;28;19917;-89
2022/04/05 14:14:34;;;;;;;;;;;20.80;37.60;;;;;;5085363;28;19923;-89
2022/04/05 14:17:00;;;;;;;;;;;21.90;36.40;;;;;;5076332;28;19913;-90
2022/04/05 14:19:26;;;;;;;;;;;23.00;34.90;;;;;;5070783;28;19917;-90
2022/04/05 14:21:52;;;;;;;;;;;24.10;33.10;;;;;;5077869;28;19909;-91
2022/04/05 14:24:18;;;;;;;;;;;24.90;32.10;;;;;;5072022;28;19912;-90
2022/04/05 14:26:44;;;;;;;;;;;26.10;29.60;;;;;;5078943;28;20377;-90
2022/04/05 14:29:10;;;;;;;;;;;26.90;28.30;;;;;;5075408;28;19912;-90
2022/04/05 14:31:36;;;;;;;;;;;27.30;28.00;;;;;;5075416;28;19913;-90
2022/04/05 14:34:02;;;;;;;;;;;27.90;26.90;;;;;;5072520;28;19921;-90
2022/04/05 14:36:30;;;;;;;;;;;27.70;27.60;;;;;;5073977;28;20385;-90
2022/04/05 14:38:55;;;;;;;;;;;28.00;27.50;;;;;;5069116;28;19943;-90
2022/04/05 14:41:23;;;;;;;;;;;27.70;26.90;;;;;;5078384;28;20363;-89
2022/04/05 14:43:49;;;;;;;;;;;27.30;27.90;;;;;;5070741;28;19920;-90
2022/04/05 14:46:14;;;;;;;;;;;27.50;27.70;;;;;;5074806;28;19913;-90
2022/04/05 14:48:41;;;;;;;;;;;26.70;27.10;;;;;;5068726;28;19912;-90
2022/04/05 14:51:07;;;;;;;;;;;25.20;29.70;;;;;;5072914;28;19924;-89
2022/04/05 14:53:32;;;;;;;;;;;24.40;30.80;;;;;;5076171;28;19969;-89